sensor_id;sensor_type;location;lat;lon;timestamp;pressure;altitude;pressure_sealevel;temperature;humidity
69570;BME280;56781;42.292;23.146;2023-04-25T00:01:41;94876.91;;;9.47;100.00
69570;BME280;56781;42.292;23.146;2023-04-25T00:04:08;94887.34;;;9.66;100.00
69570;BME280;56781;42.292;23.146;2023-04-25T00:06:36;94856.56;;;9.28;100.00
69570;BME280;56781;42.292;23.146;2023-04-25T00:09:05;94886.75;;;9.38;100.00
69570;BME280;56781;42.292;23.146;2023-04-25T00:11:34;94859.31;;;9.46;100.00
69570;BME280;56781;42.292;23.146;2023-04-25T00:14:01;94859.81;;;9.57;100.00
69570;BME280;56781;42.292;23.146;2023-04-25T00:16:29;94855.91;;;9.63;100.00
69570;BME280;56781;42.292;23.146;2023-04-25T00:19:00;94859.22;;;9.77;100.00
69570;BME280;56781;42.292;23.146;2023-04-25T00:21:30;94869.28;;;9.71;100.00
69570;BME280;56781;42.292;23.146;2023-04-25T00:23:58;94848.06;;;9.66;100.00
69570;BME280;56781;42.292;23.146;2023-04-25T00:26:26;94861.75;;;9.73;100.00
69570;BME280;56781;42.292;23.146;2023-04-25T00:28:53;94842.38;;;9.59;100.00
69570;BME280;56781;42.292;23.146;2023-04-25T00:31:21;94841.28;;;9.60;100.00
69570;BME280;56781;42.292;23.146;2023-04-25T00:33:48;94832.09;;;9.44;100.00
69570;BME280;56781;42.292;23.146;2023-04-25T00:36:15;94834.72;;;9.66;100.00
69570;BME280;56781;42.292;23.146;2023-04-25T00:38:43;94852.47;;;9.71;100.00
69570;BME280;56781;42.292;23.146;2023-04-25T00:41:11;94835.13;;;9.51;100.00
69570;BME280;56781;42.292;23.146;2023-04-25T00:43:39;94835.31;;;9.63;100.00
69570;BME280;56781;42.292;23.146;2023-04-25T00:46:07;94832.69;;;9.72;100.00
69570;BME280;56781;42.292;23.146;2023-04-25T00:48:34;94846.50;;;9.74;100.00
69570;BME280;56781;42.292;23.146;2023-04-25T00:51:01;94824.63;;;9.63;100.00
69570;BME280;56781;42.292;23.146;2023-04-25T00:53:29;94834.09;;;9.69;100.00
69570;BME280;56781;42.292;23.146;2023-04-25T00:55:57;94809.66;;;9.53;100.00
69570;BME280;56781;42.292;23.146;2023-04-25T00:58:25;94798.81;;;9.50;100.00
69570;BME280;56781;42.292;23.146;2023-04-25T01:00:52;94828.09;;;9.64;100.00
69570;BME280;56781;42.292;23.146;2023-04-25T01:03:19;94796.88;;;9.42;100.00
69570;BME280;56781;42.292;23.146;2023-04-25T01:05:47;94817.34;;;9.55;100.00
69570;BME280;56781;42.292;23.146;2023-04-25T01:08:15;94798.16;;;9.44;100.00
69570;BME280;56781;42.292;23.146;2023-04-25T01:10:42;94796.94;;;9.59;100.00
69570;BME280;56781;42.292;23.146;2023-04-25T01:13:09;94789.72;;;9.60;100.00
69570;BME280;56781;42.292;23.146;2023-04-25T01:15:37;94813.00;;;9.76;100.00
69570;BME280;56781;42.292;23.146;2023-04-25T01:18:05;94785.78;;;9.66;100.00
69570;BME280;56781;42.292;23.146;2023-04-25T01:20:33;94808.78;;;9.75;100.00
69570;BME280;56781;42.292;23.146;2023-04-25T01:23:01;94795.56;;;9.70;100.00
69570;BME280;56781;42.292;23.146;2023-04-25T01:25:32;94796.44;;;9.48;100.00
69570;BME280;56781;42.292;23.146;2023-04-25T01:27:59;94799.25;;;9.43;100.00
69570;BME280;56781;42.292;23.146;2023-04-25T01:30:26;94790.25;;;9.30;100.00
69570;BME280;56781;42.292;23.146;2023-04-25T01:32:55;94796.69;;;9.21;100.00
69570;BME280;56781;42.292;23.146;2023-04-25T01:35:23;94777.13;;;9.03;100.00
69570;BME280;56781;42.292;23.146;2023-04-25T01:37:51;94773.84;;;9.06;100.00
69570;BME280;56781;42.292;23.146;2023-04-25T01:40:20;94781.41;;;9.13;100.00
69570;BME280;56781;42.292;23.146;2023-04-25T01:42:48;94777.03;;;9.25;100.00
69570;BME280;56781;42.292;23.146;2023-04-25T01:45:16;94770.53;;;9.09;100.00
69570;BME280;56781;42.292;23.146;2023-04-25T01:47:44;94765.25;;;9.18;100.00
69570;BME280;56781;42.292;23.146;2023-04-25T01:50:17;94766.19;;;9.13;100.00
69570;BME280;56781;42.292;23.146;2023-04-25T01:52:45;94769.78;;;9.17;100.00
69570;BME280;56781;42.292;23.146;2023-04-25T01:55:12;94780.94;;;9.19;100.00
69570;BME280;56781;42.292;23.146;2023-04-25T01:57:39;94770.38;;;9.05;100.00
69570;BME280;56781;42.292;23.146;2023-04-25T02:00:07;94773.56;;;9.16;100.00
69570;BME280;56781;42.292;23.146;2023-04-25T02:02:35;94771.09;;;9.28;100.00
69570;BME280;56781;42.292;23.146;2023-04-25T02:05:03;94758.50;;;9.20;100.00
69570;BME280;56781;42.292;23.146;2023-04-25T02:07:30;94755.97;;;9.15;100.00
69570;BME280;56781;42.292;23.146;2023-04-25T02:09:58;94750.13;;;9.04;100.00
69570;BME280;56781;42.292;23.146;2023-04-25T02:12:27;94771.03;;;8.49;100.00
69570;BME280;56781;42.292;23.146;2023-04-25T02:14:54;94755.81;;;7.68;100.00
69570;BME280;56781;42.292;23.146;2023-04-25T02:17:21;94764.78;;;7.72;100.00
69570;BME280;56781;42.292;23.146;2023-04-25T02:19:49;94751.03;;;7.78;100.00
69570;BME280;56781;42.292;23.146;2023-04-25T02:22:16;94740.38;;;7.78;100.00
69570;BME280;56781;42.292;23.146;2023-04-25T02:24:45;94748.31;;;8.06;100.00
69570;BME280;56781;42.292;23.146;2023-04-25T02:27:13;94747.63;;;8.00;100.00
69570;BME280;56781;42.292;23.146;2023-04-25T02:29:40;94743.09;;;7.65;100.00
69570;BME280;56781;42.292;23.146;2023-04-25T02:32:07;94760.56;;;7.71;100.00
69570;BME280;56781;42.292;23.146;2023-04-25T02:34:34;94756.72;;;7.99;100.00
69570;BME280;56781;42.292;23.146;2023-04-25T02:37:01;94726.22;;;7.92;100.00
69570;BME280;56781;42.292;23.146;2023-04-25T02:39:29;94747.50;;;8.06;100.00
69570;BME280;56781;42.292;23.146;2023-04-25T02:41:56;94749.66;;;7.81;100.00
69570;BME280;56781;42.292;23.146;2023-04-25T02:44:23;94763.09;;;7.26;100.00
69570;BME280;56781;42.292;23.146;2023-04-25T02:46:50;94754.00;;;7.41;100.00
69570;BME280;56781;42.292;23.146;2023-04-25T02:49:17;94727.94;;;7.51;100.00
69570;BME280;56781;42.292;23.146;2023-04-25T02:51:45;94719.94;;;7.51;100.00
69570;BME280;56781;42.292;23.146;2023-04-25T02:54:12;94710.69;;;7.85;100.00
69570;BME280;56781;42.292;23.146;2023-04-25T02:56:39;94730.56;;;7.65;100.00
69570;BME280;56781;42.292;23.146;2023-04-25T02:59:06;94720.72;;;6.88;100.00
69570;BME280;56781;42.292;23.146;2023-04-25T03:01:34;94723.47;;;7.10;100.00
69570;BME280;56781;42.292;23.146;2023-04-25T03:04:01;94750.03;;;7.38;100.00
69570;BME280;56781;42.292;23.146;2023-04-25T03:06:28;94734.09;;;7.24;100.00
69570;BME280;56781;42.292;23.146;2023-04-25T03:08:55;94748.09;;;7.44;100.00
69570;BME280;56781;42.292;23.146;2023-04-25T03:11:25;94731.53;;;7.19;100.00
69570;BME280;56781;42.292;23.146;2023-04-25T03:13:52;94727.38;;;7.27;100.00
69570;BME280;56781;42.292;23.146;2023-04-25T03:16:19;94755.44;;;7.61;100.00
69570;BME280;56781;42.292;23.146;2023-04-25T03:18:46;94753.22;;;7.40;100.00
69570;BME280;56781;42.292;23.146;2023-04-25T03:21:14;94729.88;;;6.68;100.00
69570;BME280;56781;42.292;23.146;2023-04-25T03:23:41;94727.00;;;6.64;100.00
69570;BME280;56781;42.292;23.146;2023-04-25T03:26:08;94724.16;;;6.88;100.00
69570;BME280;56781;42.292;23.146;2023-04-25T03:28:35;94735.69;;;6.84;100.00
69570;BME280;56781;42.292;23.146;2023-04-25T03:31:02;94724.25;;;6.70;100.00
69570;BME280;56781;42.292;23.146;2023-04-25T03:33:30;94764.38;;;7.15;100.00
69570;BME280;56781;42.292;23.146;2023-04-25T03:35:57;94730.38;;;7.12;100.00
69570;BME280;56781;42.292;23.146;2023-04-25T03:38:24;94739.75;;;7.59;100.00
69570;BME280;56781;42.292;23.146;2023-04-25T03:40:51;94741.56;;;7.86;100.00
69570;BME280;56781;42.292;23.146;2023-04-25T03:43:19;94748.09;;;7.80;100.00
69570;BME280;56781;42.292;23.146;2023-04-25T03:45:46;94740.22;;;7.75;100.00
69570;BME280;56781;42.292;23.146;2023-04-25T03:48:13;94757.50;;;8.00;100.00
69570;BME280;56781;42.292;23.146;2023-04-25T03:50:41;94730.78;;;8.36;100.00
69570;BME280;56781;42.292;23.146;2023-04-25T03:53:08;94745.06;;;8.94;100.00
69570;BME280;56781;42.292;23.146;2023-04-25T03:55:35;94749.06;;;9.14;100.00
69570;BME280;56781;42.292;23.146;2023-04-25T03:58:03;94743.75;;;8.52;100.00
69570;BME280;56781;42.292;23.146;2023-04-25T04:00:30;94744.56;;;8.38;100.00
69570;BME280;56781;42.292;23.146;2023-04-25T04:02:57;94745.41;;;8.70;100.00
69570;BME280;56781;42.292;23.146;2023-04-25T04:05:24;94735.06;;;9.08;100.00
69570;BME280;56781;42.292;23.146;2023-04-25T04:07:52;94722.84;;;9.16;100.00
69570;BME280;56781;42.292;23.146;2023-04-25T04:10:19;94747.88;;;9.55;100.00
69570;BME280;56781;42.292;23.146;2023-04-25T04:12:47;94754.97;;;9.60;100.00
69570;BME280;56781;42.292;23.146;2023-04-25T04:15:14;94751.34;;;9.47;100.00
69570;BME280;56781;42.292;23.146;2023-04-25T04:17:41;94730.50;;;9.09;100.00
69570;BME280;56781;42.292;23.146;2023-04-25T04:20:08;94755.34;;;9.18;100.00
69570;BME280;56781;42.292;23.146;2023-04-25T04:22:36;94757.81;;;9.06;100.00
69570;BME280;56781;42.292;23.146;2023-04-25T04:25:03;94736.84;;;8.82;100.00
69570;BME280;56781;42.292;23.146;2023-04-25T04:27:32;94747.97;;;8.75;100.00
69570;BME280;56781;42.292;23.146;2023-04-25T04:29:59;94757.50;;;8.99;100.00
69570;BME280;56781;42.292;23.146;2023-04-25T04:32:27;94752.81;;;9.04;100.00
69570;BME280;56781;42.292;23.146;2023-04-25T04:34:54;94738.50;;;9.09;100.00
69570;BME280;56781;42.292;23.146;2023-04-25T04:37:22;94757.88;;;9.23;100.00
69570;BME280;56781;42.292;23.146;2023-04-25T04:39:49;94753.06;;;9.34;100.00
69570;BME280;56781;42.292;23.146;2023-04-25T04:42:17;94735.56;;;9.28;100.00
69570;BME280;56781;42.292;23.146;2023-04-25T04:44:44;94745.97;;;9.38;100.00
69570;BME280;56781;42.292;23.146;2023-04-25T04:47:11;94735.78;;;9.40;100.00
69570;BME280;56781;42.292;23.146;2023-04-25T04:49:39;94753.44;;;9.76;100.00
69570;BME280;56781;42.292;23.146;2023-04-25T04:52:06;94728.09;;;9.56;100.00
69570;BME280;56781;42.292;23.146;2023-04-25T04:54:33;94728.59;;;9.67;100.00
69570;BME280;56781;42.292;23.146;2023-04-25T04:57:02;94750.00;;;10.02;100.00
69570;BME280;56781;42.292;23.146;2023-04-25T04:59:29;94738.84;;;10.34;100.00
69570;BME280;56781;42.292;23.146;2023-04-25T05:01:56;94729.66;;;10.44;100.00
69570;BME280;56781;42.292;23.146;2023-04-25T05:04:23;94742.88;;;10.49;100.00
69570;BME280;56781;42.292;23.146;2023-04-25T05:06:51;94735.63;;;10.58;100.00
69570;BME280;56781;42.292;23.146;2023-04-25T05:09:18;94726.78;;;10.75;100.00
69570;BME280;56781;42.292;23.146;2023-04-25T05:11:46;94743.91;;;10.83;100.00
69570;BME280;56781;42.292;23.146;2023-04-25T05:14:13;94738.09;;;10.81;100.00
69570;BME280;56781;42.292;23.146;2023-04-25T05:16:40;94741.63;;;11.02;100.00
69570;BME280;56781;42.292;23.146;2023-04-25T05:19:07;94743.19;;;11.03;100.00
69570;BME280;56781;42.292;23.146;2023-04-25T05:21:34;94716.19;;;10.79;100.00
69570;BME280;56781;42.292;23.146;2023-04-25T05:24:02;94717.94;;;10.75;100.00
69570;BME280;56781;42.292;23.146;2023-04-25T05:26:29;94741.13;;;10.62;100.00
69570;BME280;56781;42.292;23.146;2023-04-25T05:28:58;94740.47;;;10.74;100.00
69570;BME280;56781;42.292;23.146;2023-04-25T05:31:25;94740.16;;;10.67;100.00
69570;BME280;56781;42.292;23.146;2023-04-25T05:33:53;94723.44;;;10.78;100.00
69570;BME280;56781;42.292;23.146;2023-04-25T05:36:20;94714.69;;;10.60;100.00
69570;BME280;56781;42.292;23.146;2023-04-25T05:38:47;94729.06;;;10.85;100.00
69570;BME280;56781;42.292;23.146;2023-04-25T05:41:15;94713.91;;;10.98;100.00
69570;BME280;56781;42.292;23.146;2023-04-25T05:43:42;94739.59;;;11.29;100.00
69570;BME280;56781;42.292;23.146;2023-04-25T05:46:14;94722.63;;;11.25;100.00
69570;BME280;56781;42.292;23.146;2023-04-25T05:48:41;94730.84;;;11.49;100.00
69570;BME280;56781;42.292;23.146;2023-04-25T05:51:08;94737.50;;;11.64;100.00
69570;BME280;56781;42.292;23.146;2023-04-25T05:53:35;94740.16;;;11.73;100.00
69570;BME280;56781;42.292;23.146;2023-04-25T05:56:03;94735.47;;;11.91;100.00
69570;BME280;56781;42.292;23.146;2023-04-25T05:58:30;94745.09;;;11.83;100.00
69570;BME280;56781;42.292;23.146;2023-04-25T06:00:57;94726.56;;;11.78;100.00
69570;BME280;56781;42.292;23.146;2023-04-25T06:03:25;94716.56;;;11.87;100.00
69570;BME280;56781;42.292;23.146;2023-04-25T06:05:52;94727.22;;;12.17;100.00
69570;BME280;56781;42.292;23.146;2023-04-25T06:08:19;94719.34;;;12.33;100.00
69570;BME280;56781;42.292;23.146;2023-04-25T06:10:47;94724.88;;;12.49;100.00
69570;BME280;56781;42.292;23.146;2023-04-25T06:13:14;94739.53;;;12.51;100.00
69570;BME280;56781;42.292;23.146;2023-04-25T06:15:42;94730.00;;;12.54;100.00
69570;BME280;56781;42.292;23.146;2023-04-25T06:18:09;94748.38;;;12.52;100.00
69570;BME280;56781;42.292;23.146;2023-04-25T06:20:37;94742.53;;;12.50;100.00
69570;BME280;56781;42.292;23.146;2023-04-25T06:23:04;94729.66;;;12.43;100.00
69570;BME280;56781;42.292;23.146;2023-04-25T06:25:31;94740.03;;;12.78;100.00
69570;BME280;56781;42.292;23.146;2023-04-25T06:27:58;94731.66;;;12.92;97.71
69570;BME280;56781;42.292;23.146;2023-04-25T06:30:26;94733.28;;;13.17;96.70
69570;BME280;56781;42.292;23.146;2023-04-25T06:32:53;94725.47;;;13.37;94.18
69570;BME280;56781;42.292;23.146;2023-04-25T06:35:21;94751.38;;;13.94;93.62
69570;BME280;56781;42.292;23.146;2023-04-25T06:37:48;94736.84;;;13.83;90.90
69570;BME280;56781;42.292;23.146;2023-04-25T06:40:15;94741.75;;;13.81;89.20
69570;BME280;56781;42.292;23.146;2023-04-25T06:42:44;94714.78;;;14.05;86.53
69570;BME280;56781;42.292;23.146;2023-04-25T06:45:11;94744.50;;;15.57;81.69
69570;BME280;56781;42.292;23.146;2023-04-25T06:47:38;94731.81;;;16.70;75.09
69570;BME280;56781;42.292;23.146;2023-04-25T06:50:05;94729.84;;;15.58;78.18
69570;BME280;56781;42.292;23.146;2023-04-25T06:52:33;94748.41;;;15.12;78.25
69570;BME280;56781;42.292;23.146;2023-04-25T06:55:00;94714.75;;;15.05;82.68
69570;BME280;56781;42.292;23.146;2023-04-25T06:57:27;94745.28;;;15.41;76.68
69570;BME280;56781;42.292;23.146;2023-04-25T06:59:54;94727.28;;;15.29;77.83
69570;BME280;56781;42.292;23.146;2023-04-25T07:02:21;94743.97;;;15.51;77.53
69570;BME280;56781;42.292;23.146;2023-04-25T07:04:49;94749.34;;;15.83;74.99
69570;BME280;56781;42.292;23.146;2023-04-25T07:07:17;94713.09;;;15.17;76.34
69570;BME280;56781;42.292;23.146;2023-04-25T07:09:44;94732.16;;;15.40;74.63
69570;BME280;56781;42.292;23.146;2023-04-25T07:12:11;94754.41;;;15.68;74.77
69570;BME280;56781;42.292;23.146;2023-04-25T07:14:38;94738.84;;;15.30;75.13
69570;BME280;56781;42.292;23.146;2023-04-25T07:17:06;94758.03;;;15.60;73.74
69570;BME280;56781;42.292;23.146;2023-04-25T07:19:33;94741.81;;;14.93;75.82
69570;BME280;56781;42.292;23.146;2023-04-25T07:22:01;94745.97;;;14.75;76.61
69570;BME280;56781;42.292;23.146;2023-04-25T07:24:28;94734.75;;;14.89;74.81
69570;BME280;56781;42.292;23.146;2023-04-25T07:26:55;94743.19;;;15.66;73.57
69570;BME280;56781;42.292;23.146;2023-04-25T07:29:23;94741.66;;;15.18;73.46
69570;BME280;56781;42.292;23.146;2023-04-25T07:31:50;94740.41;;;14.99;73.39
69570;BME280;56781;42.292;23.146;2023-04-25T07:34:17;94729.84;;;15.58;73.44
69570;BME280;56781;42.292;23.146;2023-04-25T07:36:44;94743.19;;;15.50;74.11
69570;BME280;56781;42.292;23.146;2023-04-25T07:39:11;94718.41;;;16.97;69.66
69570;BME280;56781;42.292;23.146;2023-04-25T07:41:39;94718.97;;;16.44;68.90
69570;BME280;56781;42.292;23.146;2023-04-25T07:44:06;94718.19;;;18.42;63.60
69570;BME280;56781;42.292;23.146;2023-04-25T07:46:33;94710.69;;;17.71;64.31
69570;BME280;56781;42.292;23.146;2023-04-25T07:49:00;94731.03;;;17.12;68.14
69570;BME280;56781;42.292;23.146;2023-04-25T07:51:27;94742.06;;;16.22;68.79
69570;BME280;56781;42.292;23.146;2023-04-25T07:53:54;94734.31;;;16.59;67.29
69570;BME280;56781;42.292;23.146;2023-04-25T07:56:22;94711.66;;;16.06;67.87
69570;BME280;56781;42.292;23.146;2023-04-25T07:58:49;94722.31;;;16.99;69.12
69570;BME280;56781;42.292;23.146;2023-04-25T08:01:16;94723.56;;;17.28;68.62
69570;BME280;56781;42.292;23.146;2023-04-25T08:03:43;94713.84;;;17.50;66.06
69570;BME280;56781;42.292;23.146;2023-04-25T08:06:11;94706.56;;;18.75;60.26
69570;BME280;56781;42.292;23.146;2023-04-25T08:08:38;94717.09;;;19.73;57.76
69570;BME280;56781;42.292;23.146;2023-04-25T08:11:06;94699.75;;;20.83;58.21
69570;BME280;56781;42.292;23.146;2023-04-25T08:13:33;94712.75;;;19.61;55.56
69570;BME280;56781;42.292;23.146;2023-04-25T08:16:00;94721.88;;;19.90;58.71
69570;BME280;56781;42.292;23.146;2023-04-25T08:18:28;94702.25;;;18.71;61.25
69570;BME280;56781;42.292;23.146;2023-04-25T08:20:55;94718.63;;;17.84;60.88
69570;BME280;56781;42.292;23.146;2023-04-25T08:23:22;94706.28;;;16.87;63.27
69570;BME280;56781;42.292;23.146;2023-04-25T08:25:49;94679.56;;;17.58;62.14
69570;BME280;56781;42.292;23.146;2023-04-25T08:28:16;94687.22;;;18.09;61.22
69570;BME280;56781;42.292;23.146;2023-04-25T08:30:44;94709.31;;;19.16;58.23
69570;BME280;56781;42.292;23.146;2023-04-25T08:33:11;94693.97;;;19.93;58.53
69570;BME280;56781;42.292;23.146;2023-04-25T08:35:38;94700.97;;;18.57;59.59
69570;BME280;56781;42.292;23.146;2023-04-25T08:38:05;94714.53;;;17.44;61.46
69570;BME280;56781;42.292;23.146;2023-04-25T08:40:37;94684.09;;;18.75;59.67
69570;BME280;56781;42.292;23.146;2023-04-25T08:43:09;94689.25;;;19.83;57.95
69570;BME280;56781;42.292;23.146;2023-04-25T08:45:40;94703.72;;;19.46;54.49
69570;BME280;56781;42.292;23.146;2023-04-25T08:48:14;94683.03;;;18.83;59.47
69570;BME280;56781;42.292;23.146;2023-04-25T08:50:49;94710.31;;;20.08;55.28
69570;BME280;56781;42.292;23.146;2023-04-25T08:53:25;94697.66;;;20.41;51.47
69570;BME280;56781;42.292;23.146;2023-04-25T08:55:55;94673.75;;;21.21;51.54
69570;BME280;56781;42.292;23.146;2023-04-25T08:58:23;94678.00;;;20.79;51.83
69570;BME280;56781;42.292;23.146;2023-04-25T09:00:51;94674.75;;;20.45;50.23
69570;BME280;56781;42.292;23.146;2023-04-25T09:03:19;94684.47;;;20.43;49.32
69570;BME280;56781;42.292;23.146;2023-04-25T09:05:47;94695.56;;;20.02;51.38
69570;BME280;56781;42.292;23.146;2023-04-25T09:08:14;94674.91;;;20.85;52.87
69570;BME280;56781;42.292;23.146;2023-04-25T09:10:41;94658.56;;;20.92;54.56
69570;BME280;56781;42.292;23.146;2023-04-25T09:13:10;94666.34;;;21.54;50.81
69570;BME280;56781;42.292;23.146;2023-04-25T09:15:50;94673.34;;;20.98;50.07
69570;BME280;56781;42.292;23.146;2023-04-25T09:18:29;94645.75;;;20.85;50.49
69570;BME280;56781;42.292;23.146;2023-04-25T09:21:04;94641.47;;;21.16;50.53
69570;BME280;56781;42.292;23.146;2023-04-25T09:23:47;94648.06;;;21.37;44.73
69570;BME280;56781;42.292;23.146;2023-04-25T09:26:17;94617.34;;;21.00;47.09
69570;BME280;56781;42.292;23.146;2023-04-25T09:28:45;94634.38;;;20.51;51.12
69570;BME280;56781;42.292;23.146;2023-04-25T09:31:24;94647.47;;;20.09;46.32
69570;BME280;56781;42.292;23.146;2023-04-25T09:33:59;94647.13;;;20.25;48.16
69570;BME280;56781;42.292;23.146;2023-04-25T09:36:28;94623.97;;;20.78;45.80
69570;BME280;56781;42.292;23.146;2023-04-25T09:38:59;94635.97;;;21.63;44.25
69570;BME280;56781;42.292;23.146;2023-04-25T09:41:27;94609.44;;;20.20;46.79
69570;BME280;56781;42.292;23.146;2023-04-25T09:43:57;94636.69;;;20.49;47.09
69570;BME280;56781;42.292;23.146;2023-04-25T09:46:33;94651.34;;;20.12;48.07
69570;BME280;56781;42.292;23.146;2023-04-25T09:49:06;94641.53;;;19.27;50.51
69570;BME280;56781;42.292;23.146;2023-04-25T09:51:34;94634.28;;;20.11;51.57
69570;BME280;56781;42.292;23.146;2023-04-25T09:54:01;94649.63;;;21.02;46.37
69570;BME280;56781;42.292;23.146;2023-04-25T09:56:34;94636.78;;;20.70;46.79
69570;BME280;56781;42.292;23.146;2023-04-25T09:59:03;94632.00;;;18.96;47.77
69570;BME280;56781;42.292;23.146;2023-04-25T10:01:30;94648.78;;;18.68;50.94
69570;BME280;56781;42.292;23.146;2023-04-25T10:03:58;94662.03;;;18.05;53.64
69570;BME280;56781;42.292;23.146;2023-04-25T10:06:28;94691.41;;;18.03;53.49
69570;BME280;56781;42.292;23.146;2023-04-25T10:08:56;94704.28;;;17.30;58.93
69570;BME280;56781;42.292;23.146;2023-04-25T10:11:24;94699.72;;;16.69;65.70
69570;BME280;56781;42.292;23.146;2023-04-25T10:13:53;94686.06;;;15.80;68.79
69570;BME280;56781;42.292;23.146;2023-04-25T10:16:20;94668.66;;;15.78;70.44
69570;BME280;56781;42.292;23.146;2023-04-25T10:18:48;94671.31;;;15.93;71.65
69570;BME280;56781;42.292;23.146;2023-04-25T10:21:17;94661.72;;;15.61;73.09
69570;BME280;56781;42.292;23.146;2023-04-25T10:23:45;94668.88;;;16.27;69.28
69570;BME280;56781;42.292;23.146;2023-04-25T10:26:13;94657.44;;;16.57;71.76
69570;BME280;56781;42.292;23.146;2023-04-25T10:29:01;94645.03;;;17.21;51.75
69570;BME280;56781;42.292;23.146;2023-04-25T10:31:31;94653.19;;;18.08;59.07
69570;BME280;56781;42.292;23.146;2023-04-25T10:34:00;94642.13;;;18.24;59.90
69570;BME280;56781;42.292;23.146;2023-04-25T10:36:31;94623.13;;;18.21;58.20
69570;BME280;56781;42.292;23.146;2023-04-25T10:39:04;94595.88;;;18.81;58.15
69570;BME280;56781;42.292;23.146;2023-04-25T10:41:52;94614.94;;;19.51;52.27
69570;BME280;56781;42.292;23.146;2023-04-25T10:44:20;94606.63;;;19.22;51.54
69570;BME280;56781;42.292;23.146;2023-04-25T10:46:47;94626.03;;;19.27;49.60
69570;BME280;56781;42.292;23.146;2023-04-25T10:49:34;94608.56;;;18.73;46.80
69570;BME280;56781;42.292;23.146;2023-04-25T10:52:13;94612.72;;;17.89;53.26
69570;BME280;56781;42.292;23.146;2023-04-25T10:54:49;94593.94;;;16.90;52.68
69570;BME280;56781;42.292;23.146;2023-04-25T11:00:06;94610.78;;;17.59;54.85
69570;BME280;56781;42.292;23.146;2023-04-25T11:02:53;94618.03;;;17.25;58.42
69570;BME280;56781;42.292;23.146;2023-04-25T11:07:54;94641.44;;;16.06;66.67
69570;BME280;56781;42.292;23.146;2023-04-25T11:10:33;94656.16;;;14.27;80.94
69570;BME280;56781;42.292;23.146;2023-04-25T11:13:03;94655.53;;;13.24;84.29
69570;BME280;56781;42.292;23.146;2023-04-25T11:15:31;94677.75;;;12.06;91.70
69570;BME280;56781;42.292;23.146;2023-04-25T11:17:58;94684.03;;;11.68;93.32
69570;BME280;56781;42.292;23.146;2023-04-25T11:20:26;94655.91;;;11.74;94.70
69570;BME280;56781;42.292;23.146;2023-04-25T11:22:57;94608.06;;;12.30;88.52
69570;BME280;56781;42.292;23.146;2023-04-25T11:25:28;94633.84;;;13.17;76.16
69570;BME280;56781;42.292;23.146;2023-04-25T11:27:57;94642.38;;;14.28;87.87
69570;BME280;56781;42.292;23.146;2023-04-25T11:30:26;94635.47;;;15.06;84.90
69570;BME280;56781;42.292;23.146;2023-04-25T11:32:53;94617.47;;;15.46;79.63
69570;BME280;56781;42.292;23.146;2023-04-25T11:35:20;94582.53;;;15.69;79.77
69570;BME280;56781;42.292;23.146;2023-04-25T11:37:49;94610.59;;;16.26;77.34
69570;BME280;56781;42.292;23.146;2023-04-25T11:40:17;94619.84;;;17.17;75.86
69570;BME280;56781;42.292;23.146;2023-04-25T11:42:46;94602.69;;;17.33;79.86
69570;BME280;56781;42.292;23.146;2023-04-25T11:45:14;94613.66;;;17.73;73.02
69570;BME280;56781;42.292;23.146;2023-04-25T11:47:41;94598.44;;;17.62;68.13
69570;BME280;56781;42.292;23.146;2023-04-25T11:50:09;94593.94;;;17.43;67.09
69570;BME280;56781;42.292;23.146;2023-04-25T11:52:40;94613.41;;;17.82;67.83
69570;BME280;56781;42.292;23.146;2023-04-25T11:55:09;94619.81;;;17.70;68.63
69570;BME280;56781;42.292;23.146;2023-04-25T11:57:38;94614.09;;;17.49;68.26
69570;BME280;56781;42.292;23.146;2023-04-25T12:02:35;94619.97;;;17.01;64.35
69570;BME280;56781;42.292;23.146;2023-04-25T12:05:07;94646.03;;;16.44;67.25
69570;BME280;56781;42.292;23.146;2023-04-25T12:07:56;94634.94;;;16.07;67.26
69570;BME280;56781;42.292;23.146;2023-04-25T12:10:24;94635.03;;;15.56;65.48
69570;BME280;56781;42.292;23.146;2023-04-25T12:12:52;94651.22;;;15.56;70.01
69570;BME280;56781;42.292;23.146;2023-04-25T12:15:24;94631.72;;;15.11;70.20
69570;BME280;56781;42.292;23.146;2023-04-25T12:17:53;94642.75;;;15.22;71.56
69570;BME280;56781;42.292;23.146;2023-04-25T12:20:24;94641.63;;;15.58;70.73
69570;BME280;56781;42.292;23.146;2023-04-25T12:22:53;94641.41;;;15.47;67.07
69570;BME280;56781;42.292;23.146;2023-04-25T12:25:39;94631.31;;;15.44;68.98
69570;BME280;56781;42.292;23.146;2023-04-25T12:28:18;94641.41;;;15.67;67.83
69570;BME280;56781;42.292;23.146;2023-04-25T12:33:25;94648.84;;;15.03;69.47
69570;BME280;56781;42.292;23.146;2023-04-25T12:35:54;94661.47;;;14.99;69.61
69570;BME280;56781;42.292;23.146;2023-04-25T12:38:25;94662.84;;;15.08;70.90
69570;BME280;56781;42.292;23.146;2023-04-25T12:40:53;94652.25;;;14.84;69.23
69570;BME280;56781;42.292;23.146;2023-04-25T12:43:20;94658.19;;;14.74;69.12
69570;BME280;56781;42.292;23.146;2023-04-25T12:45:52;94663.72;;;14.81;74.22
69570;BME280;56781;42.292;23.146;2023-04-25T12:48:19;94659.09;;;14.66;77.02
69570;BME280;56781;42.292;23.146;2023-04-25T12:50:47;94661.72;;;14.62;80.74
69570;BME280;56781;42.292;23.146;2023-04-25T12:53:19;94659.88;;;14.22;80.70
69570;BME280;56781;42.292;23.146;2023-04-25T12:55:47;94686.31;;;14.60;80.93
69570;BME280;56781;42.292;23.146;2023-04-25T12:58:18;94680.81;;;14.57;82.40
69570;BME280;56781;42.292;23.146;2023-04-25T13:00:46;94672.16;;;14.35;78.77
69570;BME280;56781;42.292;23.146;2023-04-25T13:03:13;94696.44;;;14.51;77.82
69570;BME280;56781;42.292;23.146;2023-04-25T13:05:41;94692.88;;;14.47;77.92